Time;durP1;ratioP1;P1;durP2;ratioP2;P2;SDS_P1;SDS_P2;PMS_P1;PMS_P2;Temp;Humidity;BMP_temperature;BMP_pressure;BME280_temperature;BME280_humidity;BME280_pressure;Samples;Min_cycle;Max_cycle;Signal;HPM_P1;HPM_P2
2020/12/04 00:00:32;;;;;;;0.30;0.30;;;6.40;99.90;;;;;;5077554;28;20196;-81
2020/12/04 00:02:58;;;;;;;0.10;0.10;;;6.40;99.90;;;;;;5076946;28;20210;-81
2020/12/04 00:05:23;;;;;;;0.40;0.40;;;6.40;99.90;;;;;;5077301;28;20244;-78
2020/12/04 00:07:49;;;;;;;0.70;0.67;;;6.40;99.90;;;;;;5079105;28;20672;-78
2020/12/04 00:10:14;;;;;;;0.20;0.20;;;6.40;99.90;;;;;;5097074;28;20177;-78
2020/12/04 00:12:40;;;;;;;1.10;0.33;;;6.40;99.90;;;;;;5095883;28;20182;-78
2020/12/04 00:15:07;;;;;;;0.43;0.43;;;6.40;99.90;;;;;;5097614;28;20162;-78
2020/12/04 00:17:33;;;;;;;0.37;0.37;;;6.50;99.90;;;;;;5079388;28;20215;-78
2020/12/04 00:19:58;;;;;;;0.40;0.40;;;6.50;99.90;;;;;;5097206;28;20163;-78
2020/12/04 00:22:24;;;;;;;0.00;0.00;;;6.50;99.90;;;;;;5097040;28;20193;-78
2020/12/04 00:24:49;;;;;;;0.30;0.20;;;6.60;99.90;;;;;;5079019;28;20182;-79
2020/12/04 00:27:15;;;;;;;0.57;0.57;;;6.50;99.90;;;;;;5096835;28;20184;-78
2020/12/04 00:29:41;;;;;;;1.17;0.70;;;6.50;99.90;;;;;;5078868;28;20208;-79
2020/12/04 00:32:06;;;;;;;0.50;0.50;;;6.50;99.90;;;;;;5097187;28;20272;-79
2020/12/04 00:34:32;;;;;;;0.97;0.70;;;6.60;99.90;;;;;;5079070;28;20598;-78
2020/12/04 00:36:57;;;;;;;0.43;0.43;;;6.60;99.90;;;;;;5097210;28;20171;-78
2020/12/04 00:39:23;;;;;;;0.70;0.53;;;6.60;99.90;;;;;;5078801;28;20162;-79
2020/12/04 00:41:49;;;;;;;0.40;0.40;;;6.60;99.90;;;;;;5096801;28;20194;-78
2020/12/04 00:44:14;;;;;;;0.30;0.30;;;6.60;99.90;;;;;;5097107;28;20198;-78
2020/12/04 00:46:40;;;;;;;0.13;0.13;;;6.60;99.90;;;;;;5096483;28;20199;-78
2020/12/04 00:49:06;;;;;;;0.10;0.10;;;6.60;99.90;;;;;;5097280;28;20166;-79
2020/12/04 00:51:31;;;;;;;2.50;0.67;;;6.50;99.90;;;;;;5078347;28;20224;-79
2020/12/04 00:53:57;;;;;;;0.67;0.67;;;6.60;99.90;;;;;;5097035;28;20272;-78
2020/12/04 00:56:30;;;;;;;0.23;0.23;;;6.60;99.90;;;;;;5096184;28;20246;-78
2020/12/04 00:58:55;;;;;;;0.50;0.50;;;6.50;99.90;;;;;;5078283;28;20534;-78
2020/12/04 01:01:21;;;;;;;0.73;0.33;;;6.60;99.90;;;;;;5096569;28;20205;-78
2020/12/04 01:03:46;;;;;;;0.50;0.50;;;6.60;99.90;;;;;;5097091;28;20169;-78
2020/12/04 01:06:12;;;;;;;0.27;0.27;;;6.60;99.90;;;;;;5096418;28;20182;-79
2020/12/04 01:08:38;;;;;;;0.40;0.40;;;6.60;99.90;;;;;;5078549;28;20174;-78
2020/12/04 01:11:04;;;;;;;1.37;1.27;;;6.60;99.90;;;;;;5096989;28;20174;-79
2020/12/04 01:13:30;;;;;;;0.63;0.63;;;6.60;99.90;;;;;;5078929;28;20539;-78
2020/12/04 01:15:55;;;;;;;0.17;0.17;;;6.50;99.90;;;;;;5078581;28;20170;-79
2020/12/04 01:18:21;;;;;;;1.37;0.57;;;6.50;99.90;;;;;;5096605;28;20227;-79
2020/12/04 01:20:46;;;;;;;0.53;0.53;;;6.50;99.90;;;;;;5096603;28;20166;-79
2020/12/04 01:23:12;;;;;;;0.40;0.33;;;6.50;99.90;;;;;;5096756;28;20181;-78
2020/12/04 01:25:37;;;;;;;0.10;0.10;;;6.50;99.90;;;;;;5078455;28;20247;-78
2020/12/04 01:28:03;;;;;;;0.73;0.70;;;6.50;99.90;;;;;;5096957;28;20261;-79
2020/12/04 01:30:29;;;;;;;0.20;0.10;;;6.60;99.90;;;;;;5078400;28;20178;-77
2020/12/04 01:32:55;;;;;;;0.30;0.30;;;6.60;99.90;;;;;;5095933;28;20285;-79
2020/12/04 01:35:20;;;;;;;0.30;0.30;;;6.60;99.90;;;;;;5097638;28;20162;-78
2020/12/04 01:37:46;;;;;;;0.20;0.20;;;6.60;99.90;;;;;;5096607;28;20175;-79
2020/12/04 01:40:11;;;;;;;0.30;0.30;;;6.60;99.90;;;;;;5096324;28;20179;-79
2020/12/04 01:42:37;;;;;;;0.30;0.30;;;6.50;99.90;;;;;;5078199;28;20194;-78
2020/12/04 01:45:03;;;;;;;0.20;0.20;;;6.50;99.90;;;;;;5096316;28;20176;-78
2020/12/04 01:47:29;;;;;;;0.40;0.40;;;6.50;99.90;;;;;;5096460;28;20174;-79
2020/12/04 01:49:55;;;;;;;0.93;0.93;;;6.60;99.90;;;;;;5096187;28;20258;-79
2020/12/04 01:52:25;;;;;;;0.37;0.37;;;6.60;99.90;;;;;;5095577;28;20182;-79
2020/12/04 01:54:51;;;;;;;0.13;0.13;;;6.60;99.90;;;;;;5096106;28;20197;-78
2020/12/04 01:57:21;;;;;;;0.37;0.13;;;6.50;99.90;;;;;;5095878;28;20192;-78
2020/12/04 01:59:47;;;;;;;0.67;0.27;;;6.50;99.90;;;;;;5081371;28;20265;-79
2020/12/04 02:02:19;;;;;;;0.60;0.50;;;6.40;99.90;;;;;;5081583;28;20636;-78
2020/12/04 02:04:46;;;;;;;0.10;0.10;;;6.40;99.90;;;;;;5081517;28;20159;-79
2020/12/04 02:07:23;;;;;;;0.30;0.30;;;6.40;99.90;;;;;;5099580;28;20162;-79
2020/12/04 02:09:53;;;;;;;0.10;0.10;;;6.30;99.90;;;;;;5100090;28;20154;-79
2020/12/04 02:12:19;;;;;;;0.10;0.10;;;6.30;99.90;;;;;;5081326;28;20198;-78
2020/12/04 02:14:48;;;;;;;0.60;0.60;;;6.30;99.90;;;;;;5081869;28;20175;-77
2020/12/04 02:17:14;;;;;;;0.23;0.20;;;6.30;99.90;;;;;;5081131;28;20181;-79
2020/12/04 02:19:43;;;;;;;0.63;0.63;;;6.40;99.90;;;;;;5081527;28;20200;-79
2020/12/04 02:22:12;;;;;;;0.47;0.47;;;6.40;99.90;;;;;;5081212;28;20212;-79
2020/12/04 02:24:40;;;;;;;0.10;0.10;;;6.30;99.90;;;;;;5099711;28;20166;-79
2020/12/04 02:27:09;;;;;;;0.30;0.30;;;6.30;99.90;;;;;;5080977;28;20173;-78
2020/12/04 02:29:39;;;;;;;0.00;0.00;;;6.30;99.90;;;;;;5099050;28;20170;-78
2020/12/04 02:32:10;;;;;;;0.23;0.23;;;6.30;99.90;;;;;;5099537;28;20187;-79
2020/12/04 02:34:35;;;;;;;0.23;0.23;;;6.30;99.90;;;;;;5099454;28;20158;-79
2020/12/04 02:37:01;;;;;;;0.73;0.43;;;6.40;99.90;;;;;;5080908;28;20181;-79
2020/12/04 02:39:26;;;;;;;0.40;0.40;;;6.30;99.90;;;;;;5099262;28;20626;-79
2020/12/04 02:41:52;;;;;;;0.13;0.13;;;6.30;99.90;;;;;;5081046;28;20283;-79
2020/12/04 02:44:18;;;;;;;0.07;0.07;;;6.20;99.90;;;;;;5099253;28;20186;-78
2020/12/04 02:46:47;;;;;;;0.33;0.33;;;6.30;99.90;;;;;;5099073;28;20179;-78
2020/12/04 02:49:13;;;;;;;2.30;1.43;;;6.30;99.90;;;;;;5098990;28;20173;-79
2020/12/04 02:51:43;;;;;;;0.10;0.10;;;6.30;99.90;;;;;;5080219;28;20198;-79
2020/12/04 02:54:08;;;;;;;0.70;0.70;;;6.30;99.90;;;;;;5081156;28;20201;-79
2020/12/04 02:56:34;;;;;;;0.40;0.40;;;6.30;99.90;;;;;;5081114;28;20170;-79
2020/12/04 02:59:00;;;;;;;0.33;0.33;;;6.30;99.90;;;;;;5099087;28;20162;-79
2020/12/04 03:01:25;;;;;;;0.50;0.50;;;6.30;99.90;;;;;;5080586;28;20606;-79
2020/12/04 03:03:51;;;;;;;0.70;0.70;;;6.30;99.90;;;;;;5080164;28;20189;-79
2020/12/04 03:06:16;;;;;;;0.57;0.33;;;6.30;99.90;;;;;;5080945;28;20649;-79
2020/12/04 03:08:42;;;;;;;0.30;0.30;;;6.30;99.90;;;;;;5098040;28;20176;-79
2020/12/04 03:11:07;;;;;;;0.10;0.10;;;6.30;99.90;;;;;;5098114;28;20205;-79
2020/12/04 03:13:33;;;;;;;0.10;0.10;;;6.30;99.90;;;;;;5098379;28;20315;-79
2020/12/04 03:15:59;;;;;;;0.37;0.30;;;6.30;99.90;;;;;;5098844;28;20197;-78
2020/12/04 03:18:24;;;;;;;0.50;0.20;;;6.30;99.90;;;;;;5080455;28;20225;-79
2020/12/04 03:20:50;;;;;;;2.57;0.57;;;6.30;99.90;;;;;;5098428;28;20630;-77
2020/12/04 03:23:15;;;;;;;0.00;0.00;;;6.30;99.90;;;;;;5098530;28;20668;-79
2020/12/04 03:25:41;;;;;;;0.00;0.00;;;6.30;99.90;;;;;;5080245;28;20542;-77
2020/12/04 03:28:06;;;;;;;0.27;0.27;;;6.30;99.90;;;;;;5080702;28;20178;-79
2020/12/04 03:30:32;;;;;;;0.60;0.60;;;6.30;99.90;;;;;;5080299;28;20166;-79
2020/12/04 03:32:58;;;;;;;0.73;0.73;;;6.40;99.90;;;;;;5097981;28;20203;-79
2020/12/04 03:35:23;;;;;;;0.50;0.50;;;6.40;99.90;;;;;;5098296;28;20171;-79
2020/12/04 03:37:49;;;;;;;0.53;0.40;;;6.50;99.90;;;;;;5098055;28;20203;-78
2020/12/04 03:40:14;;;;;;;0.27;0.27;;;6.50;99.90;;;;;;5097998;28;20510;-79
2020/12/04 03:42:40;;;;;;;0.00;0.00;;;6.50;99.90;;;;;;5098282;28;20683;-77
2020/12/04 03:45:05;;;;;;;0.30;0.30;;;6.50;99.90;;;;;;5098292;28;20211;-79
2020/12/04 03:47:31;;;;;;;0.00;0.00;;;6.50;99.90;;;;;;5080272;28;20209;-79
2020/12/04 03:49:57;;;;;;;0.30;0.30;;;6.50;99.90;;;;;;5080164;28;20178;-79
2020/12/04 03:52:22;;;;;;;0.03;0.03;;;6.60;99.90;;;;;;5098156;28;20194;-79
2020/12/04 03:54:48;;;;;;;0.30;0.30;;;6.60;99.90;;;;;;5098002;28;20188;-78
2020/12/04 03:57:14;;;;;;;0.83;0.60;;;6.70;99.90;;;;;;5079911;28;20205;-79
2020/12/04 03:59:40;;;;;;;0.63;0.63;;;6.70;99.90;;;;;;5098719;28;20200;-79
2020/12/04 04:02:05;;;;;;;0.10;0.10;;;6.70;99.90;;;;;;5118082;22;20226;-82
2020/12/04 04:04:31;;;;;;;0.13;0.13;;;6.70;99.90;;;;;;5076762;28;20166;-82
2020/12/04 04:06:57;;;;;;;0.07;0.07;;;6.70;99.90;;;;;;5094770;28;20162;-80
2020/12/04 04:09:22;;;;;;;0.37;0.37;;;6.70;99.90;;;;;;5076607;28;20166;-79
2020/12/04 04:11:48;;;;;;;0.00;0.00;;;6.70;99.90;;;;;;5094662;28;20213;-80
2020/12/04 04:14:13;;;;;;;0.40;0.40;;;6.70;99.90;;;;;;5094923;28;20193;-79
2020/12/04 04:16:39;;;;;;;0.00;0.00;;;6.80;99.90;;;;;;5094937;28;20164;-79
2020/12/04 04:19:04;;;;;;;0.20;0.20;;;6.90;99.90;;;;;;5094683;28;20159;-79
2020/12/04 04:31:47;;;;;;;0.17;0.17;;;7.00;99.90;;;;;;5094561;28;20274;-79
2020/12/04 04:34:13;;;;;;;0.00;0.00;;;7.10;99.90;;;;;;5094224;28;20200;-80
2020/12/04 04:36:38;;;;;;;0.37;0.27;;;7.20;99.90;;;;;;5076082;28;20176;-79
2020/12/04 04:39:04;;;;;;;0.00;0.00;;;7.20;99.90;;;;;;5076092;28;20169;-80
2020/12/04 04:41:29;;;;;;;0.00;0.00;;;7.30;99.90;;;;;;5075996;28;20212;-80
2020/12/04 04:43:55;;;;;;;0.00;0.00;;;7.20;99.90;;;;;;5094155;28;20626;-79
2020/12/04 04:46:45;;;;;;;0.20;0.20;;;7.20;99.90;;;;;;5075954;28;20182;-80
2020/12/04 04:49:13;;;;;;;0.00;0.00;;;7.30;99.90;;;;;;5094085;28;20236;-80
2020/12/04 04:51:41;;;;;;;0.20;0.20;;;7.20;99.90;;;;;;5075919;28;20195;-79
2020/12/04 04:54:09;;;;;;;0.00;0.00;;;7.20;99.90;;;;;;5093917;28;20198;-79
2020/12/04 04:56:35;;;;;;;0.20;0.20;;;7.10;99.90;;;;;;5075823;28;20167;-80
2020/12/04 04:59:00;;;;;;;0.40;0.17;;;7.00;99.90;;;;;;5075831;28;20566;-79
2020/12/04 05:01:26;;;;;;;0.00;0.00;;;7.00;99.90;;;;;;5093619;28;20166;-79
2020/12/04 05:03:59;;;;;;;0.10;0.10;;;7.00;99.90;;;;;;5094203;28;20162;-79
2020/12/04 05:06:37;;;;;;;0.43;0.20;;;6.90;99.90;;;;;;5094126;28;20178;-79
2020/12/04 05:09:08;;;;;;;0.00;0.00;;;6.80;99.90;;;;;;5093754;28;20212;-79
2020/12/04 05:11:34;;;;;;;0.67;0.67;;;6.80;99.90;;;;;;5093889;28;20243;-79
2020/12/04 05:14:14;;;;;;;0.10;0.10;;;6.80;99.90;;;;;;5075628;28;20605;-78
2020/12/04 05:16:40;;;;;;;0.50;0.50;;;6.80;99.90;;;;;;5094127;28;20634;-79
2020/12/04 05:19:06;;;;;;;0.30;0.30;;;6.80;99.90;;;;;;5093651;28;20170;-79
2020/12/04 05:21:32;;;;;;;0.10;0.10;;;6.80;99.90;;;;;;5093760;28;20185;-79
2020/12/04 05:23:59;;;;;;;0.70;0.70;;;6.80;99.90;;;;;;5093557;28;20201;-79
2020/12/04 05:26:33;;;;;;;0.27;0.27;;;6.80;99.90;;;;;;5093673;28;20582;-79
2020/12/04 05:28:59;;;;;;;0.00;0.00;;;6.80;99.90;;;;;;5093920;28;20147;-79
2020/12/04 05:31:29;;;;;;;0.00;0.00;;;6.80;99.90;;;;;;5075410;28;20265;-79
2020/12/04 05:33:55;;;;;;;0.20;0.20;;;6.80;99.90;;;;;;5078683;28;20198;-80
2020/12/04 05:36:30;;;;;;;0.00;0.00;;;6.90;99.90;;;;;;5098005;28;20170;-79
2020/12/04 05:38:57;;;;;;;0.10;0.10;;;6.90;99.90;;;;;;5079514;28;20229;-79
2020/12/04 05:41:24;;;;;;;0.00;0.00;;;6.80;99.90;;;;;;5097552;28;20579;-79
2020/12/04 05:43:52;;;;;;;0.17;0.17;;;6.90;99.90;;;;;;5097879;28;20202;-79
2020/12/04 05:46:24;;;;;;;0.70;0.20;;;6.90;99.90;;;;;;5079325;28;20169;-79
2020/12/04 05:49:08;;;;;;;0.07;0.07;;;6.90;99.90;;;;;;5097559;28;20151;-79
2020/12/04 05:51:36;;;;;;;0.47;0.47;;;7.00;99.90;;;;;;5079225;28;20190;-79
2020/12/04 05:54:04;;;;;;;0.10;0.10;;;7.00;99.90;;;;;;5097390;28;20190;-79
2020/12/04 05:56:34;;;;;;;0.00;0.00;;;7.00;99.90;;;;;;5097504;28;20633;-79
2020/12/04 05:59:09;;;;;;;0.20;0.20;;;7.00;99.90;;;;;;5079123;28;20154;-79
2020/12/04 06:01:35;;;;;;;0.20;0.20;;;7.00;99.90;;;;;;5097419;28;20201;-79
2020/12/04 06:04:00;;;;;;;0.50;0.33;;;7.00;99.90;;;;;;5097219;28;20634;-79
2020/12/04 06:06:27;;;;;;;0.63;0.63;;;7.00;99.90;;;;;;5097336;28;20260;-80
2020/12/04 06:08:55;;;;;;;0.30;0.30;;;7.10;99.90;;;;;;5078886;28;20174;-80
2020/12/04 06:11:22;;;;;;;0.07;0.07;;;7.10;99.90;;;;;;5078759;28;20177;-80
2020/12/04 06:13:49;;;;;;;0.10;0.10;;;7.10;99.90;;;;;;5079015;28;20207;-80
2020/12/04 06:16:15;;;;;;;0.30;0.30;;;7.10;99.90;;;;;;5078701;28;20265;-80
2020/12/04 06:18:42;;;;;;;0.00;0.00;;;7.20;99.90;;;;;;5078706;28;20727;-80
2020/12/04 06:21:07;;;;;;;0.30;0.30;;;7.20;99.90;;;;;;5097001;28;20293;-80
2020/12/04 06:23:33;;;;;;;0.30;0.30;;;7.20;99.90;;;;;;5096760;28;20202;-80
2020/12/04 06:26:04;;;;;;;0.67;0.40;;;7.30;99.90;;;;;;5096716;28;20173;-81
2020/12/04 06:28:40;;;;;;;0.03;0.03;;;7.20;99.90;;;;;;5078571;28;20253;-81
2020/12/04 06:31:10;;;;;;;0.10;0.10;;;7.30;99.90;;;;;;5078803;28;20215;-80
2020/12/04 06:33:37;;;;;;;0.33;0.33;;;7.30;99.90;;;;;;5078241;28;20205;-80
2020/12/04 06:36:04;;;;;;;0.00;0.00;;;7.30;99.90;;;;;;5078397;28;20185;-80
2020/12/04 06:38:36;;;;;;;0.10;0.10;;;7.30;99.90;;;;;;5078269;28;20360;-81
2020/12/04 06:41:26;;;;;;;0.37;0.37;;;7.30;99.90;;;;;;5096456;28;20159;-81
2020/12/04 06:43:56;;;;;;;0.20;0.20;;;7.30;99.90;;;;;;5096609;28;20179;-80
2020/12/04 06:46:40;;;;;;;0.30;0.30;;;7.30;99.90;;;;;;5096630;28;20154;-80
2020/12/04 06:49:23;;;;;;;0.00;0.00;;;7.30;99.90;;;;;;5096346;28;20151;-80
2020/12/04 06:52:16;;;;;;;0.00;0.00;;;7.20;99.90;;;;;;5096200;28;20182;-80
2020/12/04 06:54:51;;;;;;;0.00;0.00;;;7.30;99.90;;;;;;5094003;28;20667;-80
2020/12/04 06:57:22;;;;;;;0.83;0.33;;;7.30;99.90;;;;;;5078037;28;20155;-81
2020/12/04 06:59:49;;;;;;;0.57;0.50;;;7.40;99.90;;;;;;5096112;28;20529;-81
2020/12/04 07:02:16;;;;;;;0.00;0.00;;;7.40;99.90;;;;;;5095833;28;20226;-80
2020/12/04 07:04:49;;;;;;;0.37;0.37;;;7.40;99.90;;;;;;5077799;28;20174;-80
2020/12/04 07:07:19;;;;;;;0.50;0.50;;;7.40;99.90;;;;;;5077745;28;20200;-80
2020/12/04 07:09:57;;;;;;;0.00;0.00;;;7.40;99.90;;;;;;5095905;28;20525;-80
2020/12/04 07:12:26;;;;;;;0.00;0.00;;;7.40;99.90;;;;;;5077591;28;20572;-80
2020/12/04 07:15:01;;;;;;;0.10;0.10;;;7.40;99.90;;;;;;5095763;28;20249;-80
2020/12/04 07:17:28;;;;;;;0.10;0.10;;;7.30;99.90;;;;;;5078470;28;20162;-80
2020/12/04 07:19:56;;;;;;;0.10;0.10;;;7.30;99.90;;;;;;5095693;28;20166;-81
2020/12/04 07:22:23;;;;;;;0.10;0.10;;;7.40;99.90;;;;;;5077356;28;20192;-80
2020/12/04 07:24:50;;;;;;;0.90;0.90;;;7.40;99.90;;;;;;5095594;28;20245;-81
2020/12/04 07:27:17;;;;;;;0.20;0.03;;;7.30;99.90;;;;;;5095892;28;20213;-81
2020/12/04 07:29:44;;;;;;;0.20;0.20;;;7.40;99.90;;;;;;5077414;28;20174;-81
2020/12/04 07:32:10;;;;;;;0.00;0.00;;;7.40;99.90;;;;;;5095394;28;20235;-81
2020/12/04 07:34:38;;;;;;;0.10;0.10;;;7.40;99.90;;;;;;5077203;28;20203;-80
2020/12/04 07:37:05;;;;;;;0.10;0.10;;;7.50;99.90;;;;;;5077272;28;20192;-80
2020/12/04 07:39:39;;;;;;;0.07;0.07;;;7.50;99.90;;;;;;5077109;28;20174;-80
2020/12/04 07:42:08;;;;;;;0.33;0.33;;;7.50;99.90;;;;;;5095149;28;20645;-80
2020/12/04 07:44:50;;;;;;;0.00;0.00;;;7.50;99.90;;;;;;5095189;28;20181;-80
2020/12/04 07:47:17;;;;;;;0.20;0.20;;;7.50;99.90;;;;;;5096077;28;20200;-81
2020/12/04 07:49:49;;;;;;;0.43;0.40;;;7.50;99.90;;;;;;5077192;28;20503;-81
2020/12/04 07:52:19;;;;;;;0.00;0.00;;;7.50;99.90;;;;;;5077067;28;20200;-81
2020/12/04 07:54:47;;;;;;;0.10;0.10;;;7.50;99.90;;;;;;5077242;28;20251;-83
2020/12/04 07:57:13;;;;;;;0.10;0.10;;;7.50;99.90;;;;;;5077620;28;20178;-81
2020/12/04 07:59:39;;;;;;;0.00;0.00;;;7.50;99.90;;;;;;5077436;28;20257;-81
2020/12/04 08:02:06;;;;;;;0.00;0.00;;;7.60;99.90;;;;;;5077546;28;20228;-80
2020/12/04 08:04:34;;;;;;;0.20;0.20;;;7.60;99.90;;;;;;5077450;28;20176;-80
2020/12/04 08:07:11;;;;;;;0.73;0.73;;;7.70;99.90;;;;;;5096017;28;20208;-79
2020/12/04 08:09:42;;;;;;;0.37;0.37;;;7.70;99.90;;;;;;5095881;28;20173;-78
2020/12/04 08:12:25;;;;;;;0.00;0.00;;;7.70;99.90;;;;;;5079063;28;20194;-79
2020/12/04 08:14:56;;;;;;;0.40;0.40;;;7.70;99.90;;;;;;5098381;28;20166;-78
2020/12/04 08:17:24;;;;;;;0.00;0.00;;;7.70;99.90;;;;;;5080356;28;20173;-79
2020/12/04 08:19:50;;;;;;;0.20;0.20;;;7.70;99.90;;;;;;5079985;28;20162;-78
2020/12/04 08:22:16;;;;;;;0.00;0.00;;;7.70;99.90;;;;;;5079685;28;20676;-78
2020/12/04 08:24:51;;;;;;;0.90;0.40;;;7.70;99.90;;;;;;5097241;28;20177;-78
2020/12/04 08:27:17;;;;;;;0.00;0.00;;;7.70;99.90;;;;;;5079331;28;20169;-78
2020/12/04 08:29:46;;;;;;;0.53;0.53;;;7.70;99.90;;;;;;5096545;28;20585;-78
2020/12/04 08:32:21;;;;;;;0.00;0.00;;;7.70;99.90;;;;;;5077995;28;20186;-77
2020/12/04 08:34:48;;;;;;;0.07;0.07;;;7.80;99.90;;;;;;5096837;28;20179;-76
2020/12/04 08:37:16;;;;;;;0.03;0.03;;;7.70;99.90;;;;;;5078695;28;20601;-79
2020/12/04 08:39:49;;;;;;;0.03;0.03;;;7.80;99.90;;;;;;5076635;28;20226;-79
2020/12/04 08:42:32;;;;;;;0.00;0.00;;;7.80;99.90;;;;;;5076289;28;20188;-78
2020/12/04 08:45:08;;;;;;;0.20;0.20;;;7.80;99.90;;;;;;5076138;28;20157;-78
2020/12/04 08:47:38;;;;;;;0.00;0.00;;;7.80;99.90;;;;;;5076795;28;20163;-79
2020/12/04 08:50:11;;;;;;;0.30;0.30;;;7.80;99.90;;;;;;5094444;28;20168;-78
2020/12/04 08:52:43;;;;;;;0.37;0.37;;;7.90;99.90;;;;;;5095182;28;20190;-78
2020/12/04 08:55:13;;;;;;;0.10;0.10;;;7.90;99.90;;;;;;5076795;28;20190;-77
2020/12/04 08:57:40;;;;;;;0.07;0.07;;;8.00;99.90;;;;;;5077203;28;20216;-78
2020/12/04 09:00:07;;;;;;;0.00;0.00;;;8.00;99.90;;;;;;5094663;28;20169;-78
2020/12/04 09:02:34;;;;;;;0.37;0.37;;;8.00;99.90;;;;;;5094604;28;20206;-79
2020/12/04 09:05:00;;;;;;;1.60;0.43;;;8.00;99.90;;;;;;5094386;28;20174;-80
2020/12/04 09:07:25;;;;;;;0.00;0.00;;;8.00;99.90;;;;;;5074812;28;20171;-80
2020/12/04 09:09:51;;;;;;;0.20;0.20;;;8.00;99.90;;;;;;5094025;28;20247;-80
2020/12/04 09:12:16;;;;;;;0.20;0.10;;;8.00;99.90;;;;;;5075573;28;20690;-79
2020/12/04 09:14:42;;;;;;;0.00;0.00;;;8.10;99.90;;;;;;5093683;28;20201;-79
2020/12/04 09:17:07;;;;;;;0.20;0.20;;;8.20;99.90;;;;;;5093950;28;20165;-79
2020/12/04 09:19:33;;;;;;;0.10;0.10;;;8.20;99.90;;;;;;5075761;28;20158;-80
2020/12/04 09:21:58;;;;;;;0.00;0.00;;;8.20;99.90;;;;;;5093555;28;20353;-80
2020/12/04 09:24:24;;;;;;;0.00;0.00;;;8.20;99.90;;;;;;5075431;28;20170;-80
2020/12/04 09:26:49;;;;;;;0.00;0.00;;;8.20;99.90;;;;;;5075498;28;20190;-80
2020/12/04 09:29:15;;;;;;;0.00;0.00;;;8.30;99.90;;;;;;5093548;28;20640;-80
2020/12/04 09:31:40;;;;;;;0.10;0.10;;;8.30;99.90;;;;;;5093691;28;20202;-80
2020/12/04 09:34:06;;;;;;;0.00;0.00;;;8.40;99.90;;;;;;5093453;28;20195;-80
2020/12/04 09:36:32;;;;;;;0.00;0.00;;;8.30;99.90;;;;;;5075326;28;20633;-81
2020/12/04 09:38:57;;;;;;;0.07;0.07;;;8.30;99.90;;;;;;5075411;28;20173;-80
2020/12/04 09:41:23;;;;;;;0.40;0.27;;;8.30;99.90;;;;;;5093350;28;20172;-80
2020/12/04 09:43:48;;;;;;;0.00;0.00;;;8.30;99.90;;;;;;5075412;28;20177;-82
2020/12/04 09:46:14;;;;;;;0.10;0.10;;;8.30;99.90;;;;;;5076170;28;20219;-82
2020/12/04 09:48:39;;;;;;;0.10;0.10;;;8.40;99.90;;;;;;5075813;28;20235;-81
2020/12/04 09:51:05;;;;;;;0.00;0.00;;;8.40;99.90;;;;;;5093471;28;20223;-84
2020/12/04 09:53:30;;;;;;;0.10;0.10;;;8.40;99.90;;;;;;5093412;28;20193;-84
2020/12/04 09:55:56;;;;;;;0.40;0.27;;;8.40;99.90;;;;;;5094152;28;20161;-80
2020/12/04 09:58:22;;;;;;;0.00;0.00;;;8.50;99.90;;;;;;5075332;28;20177;-82
2020/12/04 10:00:47;;;;;;;0.00;0.00;;;8.50;99.90;;;;;;5075755;28;20165;-85
2020/12/04 10:03:13;;;;;;;0.00;0.00;;;8.50;99.90;;;;;;5094036;28;20231;-84
2020/12/04 10:05:38;;;;;;;0.13;0.13;;;8.60;99.90;;;;;;5076511;28;20633;-83
2020/12/04 10:08:04;;;;;;;0.00;0.00;;;8.60;99.90;;;;;;5075903;28;20177;-83
2020/12/04 10:10:29;;;;;;;0.10;0.10;;;8.60;99.90;;;;;;5075727;28;20178;-85
2020/12/04 10:12:55;;;;;;;0.10;0.10;;;8.70;99.90;;;;;;5094340;28;20204;-81
2020/12/04 10:15:20;;;;;;;0.00;0.00;;;8.70;99.90;;;;;;5075954;28;20178;-82
2020/12/04 10:17:46;;;;;;;0.00;0.00;;;8.80;99.90;;;;;;5094379;28;20181;-81
2020/12/04 10:20:11;;;;;;;0.00;0.00;;;8.80;99.90;;;;;;5097982;28;20174;-80
2020/12/04 10:22:37;;;;;;;0.10;0.10;;;8.90;99.90;;;;;;5080054;28;20200;-81
2020/12/04 10:25:03;;;;;;;0.17;0.17;;;8.90;99.90;;;;;;5079642;28;20264;-84
2020/12/04 10:27:29;;;;;;;0.77;0.27;;;8.90;99.90;;;;;;5097253;28;20249;-83
2020/12/04 10:29:54;;;;;;;0.00;0.00;;;9.00;99.90;;;;;;5097591;28;20196;-81
2020/12/04 10:32:20;;;;;;;0.17;0.17;;;9.00;99.90;;;;;;5097117;28;20233;-82
2020/12/04 10:34:47;;;;;;;0.10;0.10;;;9.00;99.90;;;;;;5121136;22;20198;-78
2020/12/04 10:37:12;;;;;;;0.10;0.10;;;8.90;99.90;;;;;;5113868;28;20683;-80
2020/12/04 10:39:38;;;;;;;0.00;0.00;;;8.80;99.90;;;;;;5115990;28;20169;-81
2020/12/04 10:42:04;;;;;;;0.20;0.20;;;8.90;99.90;;;;;;5118458;28;20184;-82
2020/12/04 10:44:32;;;;;;;0.00;0.00;;;8.90;99.90;;;;;;5118251;28;20192;-81
2020/12/04 10:46:59;;;;;;;0.60;0.50;;;8.90;99.90;;;;;;5118702;28;20182;-81
2020/12/04 10:49:25;;;;;;;0.10;0.10;;;9.00;99.90;;;;;;5119110;28;20189;-80
2020/12/04 10:51:55;;;;;;;0.00;0.00;;;9.00;99.90;;;;;;5116880;28;20173;-81
2020/12/04 10:54:21;;;;;;;0.00;0.00;;;9.10;99.90;;;;;;5116280;28;20624;-82
2020/12/04 10:56:47;;;;;;;0.00;0.00;;;9.10;99.90;;;;;;5115661;28;20228;-83
2020/12/04 10:59:13;;;;;;;0.00;0.00;;;9.20;99.90;;;;;;5115946;28;20530;-82
2020/12/04 11:01:45;;;;;;;0.43;0.17;;;9.30;99.90;;;;;;5115238;28;20162;-82
2020/12/04 11:06:56;;;;;;;0.10;0.10;;;9.50;99.90;;;;;;5116740;28;20261;-82
2020/12/04 11:09:21;;;;;;;0.07;0.07;;;9.50;99.90;;;;;;5116386;28;20257;-81
2020/12/04 11:11:47;;;;;;;0.30;0.30;;;9.40;99.90;;;;;;5115301;28;20212;-82
2020/12/04 11:14:13;;;;;;;0.80;0.27;;;9.30;99.90;;;;;;5114948;28;20613;-82
2020/12/04 11:16:42;;;;;;;0.20;0.20;;;9.20;99.90;;;;;;5116189;28;20185;-82
2020/12/04 11:19:09;;;;;;;0.10;0.10;;;9.20;99.90;;;;;;5116136;28;20188;-82
2020/12/04 11:21:35;;;;;;;0.00;0.00;;;9.30;99.90;;;;;;5116167;28;20529;-82
2020/12/04 11:24:01;;;;;;;0.07;0.07;;;9.30;99.90;;;;;;5116093;28;20169;-82
2020/12/04 11:26:27;;;;;;;0.03;0.03;;;9.30;99.90;;;;;;5114923;28;20194;-81
2020/12/04 11:28:52;;;;;;;0.00;0.00;;;9.40;99.90;;;;;;5114746;28;20173;-82
2020/12/04 11:31:18;;;;;;;0.00;0.00;;;9.40;99.90;;;;;;5113761;28;20170;-82
2020/12/04 11:33:43;;;;;;;0.63;0.60;;;9.50;99.90;;;;;;5115815;28;20545;-82
2020/12/04 11:36:09;;;;;;;0.17;0.17;;;9.50;99.90;;;;;;5114696;28;20201;-80
2020/12/04 11:38:34;;;;;;;0.00;0.00;;;9.50;99.90;;;;;;5116439;28;20284;-80
2020/12/04 11:41:00;;;;;;;0.10;0.10;;;9.50;99.90;;;;;;5126755;28;20162;-79
2020/12/04 11:43:26;;;;;;;0.20;0.10;;;9.60;99.90;;;;;;5119779;28;20169;-79
2020/12/04 11:45:51;;;;;;;0.00;0.00;;;9.70;99.90;;;;;;5116541;28;20630;-79
2020/12/04 11:48:17;;;;;;;0.00;0.00;;;9.70;99.90;;;;;;5125173;28;20173;-82
2020/12/04 11:50:42;;;;;;;0.00;0.00;;;9.80;99.90;;;;;;5118266;28;20310;-79
2020/12/04 11:53:08;;;;;;;0.10;0.00;;;9.80;99.90;;;;;;5118877;28;20329;-79
2020/12/04 11:55:34;;;;;;;0.20;0.20;;;9.70;99.90;;;;;;5120539;28;20193;-78
2020/12/04 11:58:00;;;;;;;0.00;0.00;;;9.70;99.90;;;;;;5122186;28;20181;-80
2020/12/04 12:00:25;;;;;;;0.03;0.00;;;9.70;99.90;;;;;;5116395;28;20174;-84
2020/12/04 12:02:51;;;;;;;0.00;0.00;;;9.80;99.90;;;;;;5121326;28;20169;-78
2020/12/04 12:05:17;;;;;;;0.20;0.20;;;9.90;99.90;;;;;;5114288;28;20200;-77
2020/12/04 12:07:42;;;;;;;0.00;0.00;;;9.80;99.90;;;;;;5116987;28;20222;-78
2020/12/04 12:10:09;;;;;;;0.43;0.20;;;9.80;99.90;;;;;;5119683;28;20161;-80
2020/12/04 12:12:34;;;;;;;0.00;0.00;;;9.80;99.90;;;;;;5122162;28;20173;-78
2020/12/04 12:15:00;;;;;;;0.20;0.20;;;9.70;99.90;;;;;;5123406;28;20162;-79
2020/12/04 12:17:25;;;;;;;2.00;0.40;;;9.70;99.90;;;;;;5124084;28;20162;-79
2020/12/04 12:19:51;;;;;;;0.10;0.10;;;9.70;99.90;;;;;;5120963;28;20169;-78
2020/12/04 12:22:16;;;;;;;0.00;0.00;;;9.70;99.90;;;;;;5118565;28;20168;-77
2020/12/04 12:24:43;;;;;;;0.20;0.10;;;9.60;99.90;;;;;;5121705;28;20498;-79
2020/12/04 12:27:09;;;;;;;0.00;0.00;;;9.70;99.90;;;;;;5121722;28;20170;-79
2020/12/04 12:29:35;;;;;;;0.00;0.00;;;9.70;99.90;;;;;;5119259;28;20193;-80
2020/12/04 12:32:02;;;;;;;0.33;0.33;;;9.60;99.90;;;;;;5119803;28;20181;-79
2020/12/04 12:37:12;;;;;;;0.63;0.40;;;9.60;99.90;;;;;;5117827;28;20161;-78
2020/12/04 12:39:38;;;;;;;0.00;0.00;;;9.60;99.90;;;;;;5117210;28;20170;-78
2020/12/04 12:42:17;;;;;;;0.00;0.00;;;9.50;99.90;;;;;;5119397;28;20184;-78
2020/12/04 12:44:43;;;;;;;0.03;0.03;;;9.60;99.90;;;;;;5120120;28;20169;-79
2020/12/04 12:47:09;;;;;;;0.63;0.50;;;9.60;99.90;;;;;;5123821;28;20263;-78
2020/12/04 12:49:35;;;;;;;0.10;0.07;;;9.60;99.90;;;;;;5122416;28;20177;-77
2020/12/04 12:52:01;;;;;;;0.00;0.00;;;9.50;99.90;;;;;;5122771;28;20173;-78
2020/12/04 12:54:30;;;;;;;1.07;0.20;;;9.60;99.90;;;;;;5126382;28;20197;-79
2020/12/04 12:56:57;;;;;;;0.10;0.10;;;9.50;99.90;;;;;;5119837;28;20224;-79
2020/12/04 12:59:23;;;;;;;0.10;0.10;;;9.50;99.90;;;;;;5120767;28;20193;-78
2020/12/04 13:01:50;;;;;;;0.07;0.03;;;9.50;99.90;;;;;;5124378;28;20162;-78
2020/12/04 13:04:16;;;;;;;0.13;0.00;;;9.60;99.90;;;;;;5116477;28;20587;-79
2020/12/04 13:06:45;;;;;;;0.10;0.10;;;9.60;99.90;;;;;;5115872;28;20189;-79
2020/12/04 13:09:11;;;;;;;0.23;0.20;;;9.60;99.90;;;;;;5116182;28;20256;-76
2020/12/04 13:11:37;;;;;;;0.00;0.00;;;9.60;99.90;;;;;;5115707;28;20620;-78
2020/12/04 13:14:03;;;;;;;0.30;0.30;;;9.60;99.90;;;;;;5117865;28;20196;-78